sensor_id;sensor_type;location;lat;lon;timestamp;pressure;altitude;pressure_sealevel;temperature;humidity
68889;BME280;55930;47.412;8.790;2023-03-15T00:03:14;94166.88;;;1.59;100.00
68889;BME280;55930;47.412;8.790;2023-03-15T00:06:35;94171.94;;;1.50;100.00
68889;BME280;55930;47.412;8.790;2023-03-15T00:09:56;94178.06;;;1.60;100.00
68889;BME280;55930;47.412;8.790;2023-03-15T00:13:19;94177.00;;;1.57;100.00
68889;BME280;55930;47.412;8.790;2023-03-15T00:16:39;94182.72;;;1.52;100.00
68889;BME280;55930;47.412;8.790;2023-03-15T00:20:02;94191.22;;;1.56;100.00
68889;BME280;55930;47.412;8.790;2023-03-15T00:23:23;94194.00;;;1.49;100.00
68889;BME280;55930;47.412;8.790;2023-03-15T00:26:44;94195.47;;;1.50;100.00
68889;BME280;55930;47.412;8.790;2023-03-15T00:30:04;94190.81;;;1.58;100.00
68889;BME280;55930;47.412;8.790;2023-03-15T00:33:25;94193.31;;;1.61;100.00
68889;BME280;55930;47.412;8.790;2023-03-15T00:36:45;94195.78;;;1.68;100.00
68889;BME280;55930;47.412;8.790;2023-03-15T00:40:06;94199.13;;;1.69;100.00
68889;BME280;55930;47.412;8.790;2023-03-15T00:43:26;94209.75;;;1.62;100.00
68889;BME280;55930;47.412;8.790;2023-03-15T00:46:47;94221.28;;;1.80;100.00
68889;BME280;55930;47.412;8.790;2023-03-15T00:50:08;94233.78;;;1.89;100.00
68889;BME280;55930;47.412;8.790;2023-03-15T00:53:28;94249.31;;;1.80;100.00
68889;BME280;55930;47.412;8.790;2023-03-15T00:56:49;94245.72;;;1.74;100.00
68889;BME280;55930;47.412;8.790;2023-03-15T01:00:15;94256.00;;;1.81;100.00
68889;BME280;55930;47.412;8.790;2023-03-15T01:03:35;94264.41;;;1.88;100.00
68889;BME280;55930;47.412;8.790;2023-03-15T01:06:57;94261.63;;;1.96;100.00
68889;BME280;55930;47.412;8.790;2023-03-15T01:10:18;94274.47;;;1.90;100.00
68889;BME280;55930;47.412;8.790;2023-03-15T01:13:39;94281.50;;;1.93;100.00
68889;BME280;55930;47.412;8.790;2023-03-15T01:17:00;94288.44;;;1.83;100.00
68889;BME280;55930;47.412;8.790;2023-03-15T01:20:20;94312.81;;;1.97;100.00
68889;BME280;55930;47.412;8.790;2023-03-15T01:23:41;94306.75;;;1.83;100.00
68889;BME280;55930;47.412;8.790;2023-03-15T01:27:01;94313.13;;;1.82;100.00
68889;BME280;55930;47.412;8.790;2023-03-15T01:30:21;94321.56;;;1.90;100.00
68889;BME280;55930;47.412;8.790;2023-03-15T01:33:42;94324.91;;;2.07;100.00
68889;BME280;55930;47.412;8.790;2023-03-15T01:37:02;94318.53;;;1.91;100.00
68889;BME280;55930;47.412;8.790;2023-03-15T01:40:23;94321.63;;;1.86;100.00
68889;BME280;55930;47.412;8.790;2023-03-15T01:43:43;94321.38;;;1.81;100.00
68889;BME280;55930;47.412;8.790;2023-03-15T01:47:07;94330.38;;;1.96;100.00
68889;BME280;55930;47.412;8.790;2023-03-15T01:50:28;94334.03;;;1.82;100.00
68889;BME280;55930;47.412;8.790;2023-03-15T01:57:48;94342.78;;;1.92;100.00
68889;BME280;55930;47.412;8.790;2023-03-15T02:01:11;94353.22;;;1.76;100.00
68889;BME280;55930;47.412;8.790;2023-03-15T02:04:44;94364.41;;;1.76;100.00
68889;BME280;55930;47.412;8.790;2023-03-15T02:08:07;94362.69;;;1.70;100.00
68889;BME280;55930;47.412;8.790;2023-03-15T02:11:30;94376.03;;;1.75;100.00
68889;BME280;55930;47.412;8.790;2023-03-15T02:14:54;94368.59;;;1.74;100.00
68889;BME280;55930;47.412;8.790;2023-03-15T02:18:17;94382.06;;;1.72;100.00
68889;BME280;55930;47.412;8.790;2023-03-15T02:25:17;94388.44;;;1.71;100.00
68889;BME280;55930;47.412;8.790;2023-03-15T02:28:55;94393.31;;;1.69;100.00
68889;BME280;55930;47.412;8.790;2023-03-15T02:32:16;94392.41;;;1.60;100.00
68889;BME280;55930;47.412;8.790;2023-03-15T02:35:36;94398.31;;;1.44;100.00
68889;BME280;55930;47.412;8.790;2023-03-15T02:38:57;94407.75;;;1.38;100.00
68889;BME280;55930;47.412;8.790;2023-03-15T02:42:20;94409.13;;;1.26;100.00
68889;BME280;55930;47.412;8.790;2023-03-15T02:45:43;94420.22;;;1.30;100.00
68889;BME280;55930;47.412;8.790;2023-03-15T02:49:06;94427.31;;;1.30;100.00
68889;BME280;55930;47.412;8.790;2023-03-15T02:52:27;94428.66;;;1.18;100.00
68889;BME280;55930;47.412;8.790;2023-03-15T02:55:50;94430.88;;;0.96;100.00
68889;BME280;55930;47.412;8.790;2023-03-15T02:59:10;94433.53;;;0.73;100.00
68889;BME280;55930;47.412;8.790;2023-03-15T03:02:32;94441.19;;;0.84;100.00
68889;BME280;55930;47.412;8.790;2023-03-15T03:05:52;94443.97;;;0.73;100.00
68889;BME280;55930;47.412;8.790;2023-03-15T03:09:12;94441.47;;;0.66;100.00
68889;BME280;55930;47.412;8.790;2023-03-15T03:12:33;94444.41;;;0.45;100.00
68889;BME280;55930;47.412;8.790;2023-03-15T03:15:53;94445.28;;;0.34;100.00
68889;BME280;55930;47.412;8.790;2023-03-15T03:19:17;94450.56;;;0.31;100.00
68889;BME280;55930;47.412;8.790;2023-03-15T03:22:41;94454.41;;;0.23;100.00
68889;BME280;55930;47.412;8.790;2023-03-15T03:26:11;94456.13;;;0.06;100.00
68889;BME280;55930;47.412;8.790;2023-03-15T03:29:35;94471.50;;;-0.03;100.00
68889;BME280;55930;47.412;8.790;2023-03-15T03:32:56;94472.56;;;0.03;100.00
68889;BME280;55930;47.412;8.790;2023-03-15T03:36:16;94483.50;;;-0.09;100.00
68889;BME280;55930;47.412;8.790;2023-03-15T03:39:37;94486.81;;;-0.05;100.00
68889;BME280;55930;47.412;8.790;2023-03-15T03:42:57;94488.59;;;0.02;100.00
68889;BME280;55930;47.412;8.790;2023-03-15T03:46:17;94507.47;;;0.09;100.00
68889;BME280;55930;47.412;8.790;2023-03-15T03:49:38;94497.94;;;-0.01;100.00
68889;BME280;55930;47.412;8.790;2023-03-15T03:53:01;94504.63;;;0.00;100.00
68889;BME280;55930;47.412;8.790;2023-03-15T03:56:21;94507.63;;;-0.02;100.00
68889;BME280;55930;47.412;8.790;2023-03-15T03:59:41;94504.28;;;-0.02;100.00
68889;BME280;55930;47.412;8.790;2023-03-15T04:03:02;94506.56;;;-0.08;100.00
68889;BME280;55930;47.412;8.790;2023-03-15T04:06:22;94516.84;;;0.07;100.00
68889;BME280;55930;47.412;8.790;2023-03-15T04:09:43;94515.84;;;-0.03;100.00
68889;BME280;55930;47.412;8.790;2023-03-15T04:13:03;94521.69;;;-0.26;100.00
68889;BME280;55930;47.412;8.790;2023-03-15T04:16:23;94524.75;;;-0.34;100.00
68889;BME280;55930;47.412;8.790;2023-03-15T04:19:44;94521.44;;;-0.39;100.00
68889;BME280;55930;47.412;8.790;2023-03-15T04:23:09;94533.69;;;-0.35;100.00
68889;BME280;55930;47.412;8.790;2023-03-15T04:26:30;94537.50;;;-0.44;100.00
68889;BME280;55930;47.412;8.790;2023-03-15T04:29:52;94539.16;;;-0.64;100.00
68889;BME280;55930;47.412;8.790;2023-03-15T04:33:13;94535.72;;;-0.54;100.00
68889;BME280;55930;47.412;8.790;2023-03-15T04:36:33;94529.28;;;-0.80;100.00
68889;BME280;55930;47.412;8.790;2023-03-15T04:39:54;94544.72;;;-0.58;100.00
68889;BME280;55930;47.412;8.790;2023-03-15T04:43:14;94555.06;;;-0.51;100.00
68889;BME280;55930;47.412;8.790;2023-03-15T04:46:34;94554.53;;;-0.73;100.00
68889;BME280;55930;47.412;8.790;2023-03-15T04:49:55;94558.25;;;-0.74;100.00
68889;BME280;55930;47.412;8.790;2023-03-15T04:53:15;94562.28;;;-0.66;100.00
68889;BME280;55930;47.412;8.790;2023-03-15T04:56:36;94567.88;;;-0.71;100.00
68889;BME280;55930;47.412;8.790;2023-03-15T04:59:56;94561.69;;;-0.84;100.00
68889;BME280;55930;47.412;8.790;2023-03-15T05:03:17;94571.00;;;-0.87;100.00
68889;BME280;55930;47.412;8.790;2023-03-15T05:06:37;94573.25;;;-0.89;100.00
68889;BME280;55930;47.412;8.790;2023-03-15T05:10:00;94572.53;;;-0.93;100.00
68889;BME280;55930;47.412;8.790;2023-03-15T05:13:20;94576.63;;;-0.92;100.00
68889;BME280;55930;47.412;8.790;2023-03-15T05:16:43;94573.31;;;-0.99;100.00
68889;BME280;55930;47.412;8.790;2023-03-15T05:20:06;94583.38;;;-1.01;100.00
68889;BME280;55930;47.412;8.790;2023-03-15T05:23:33;94583.00;;;-0.96;100.00
68889;BME280;55930;47.412;8.790;2023-03-15T05:26:53;94587.13;;;-1.06;100.00
68889;BME280;55930;47.412;8.790;2023-03-15T05:30:14;94598.63;;;-1.03;100.00
68889;BME280;55930;47.412;8.790;2023-03-15T05:33:35;94594.56;;;-1.04;100.00
68889;BME280;55930;47.412;8.790;2023-03-15T05:36:55;94599.31;;;-0.96;100.00
68889;BME280;55930;47.412;8.790;2023-03-15T05:40:16;94600.13;;;-1.02;100.00
68889;BME280;55930;47.412;8.790;2023-03-15T05:43:36;94599.72;;;-0.97;100.00
68889;BME280;55930;47.412;8.790;2023-03-15T05:46:57;94606.69;;;-0.87;100.00
68889;BME280;55930;47.412;8.790;2023-03-15T05:50:17;94612.94;;;-0.74;100.00
68889;BME280;55930;47.412;8.790;2023-03-15T05:53:38;94617.28;;;-0.57;100.00
68889;BME280;55930;47.412;8.790;2023-03-15T05:56:58;94622.75;;;-0.48;100.00
68889;BME280;55930;47.412;8.790;2023-03-15T06:00:19;94625.97;;;-0.29;100.00
68889;BME280;55930;47.412;8.790;2023-03-15T06:03:39;94621.53;;;-0.32;100.00
68889;BME280;55930;47.412;8.790;2023-03-15T06:07:00;94626.03;;;0.01;100.00
68889;BME280;55930;47.412;8.790;2023-03-15T06:10:20;94633.56;;;0.29;100.00
68889;BME280;55930;47.412;8.790;2023-03-15T06:13:41;94624.88;;;0.70;100.00
68889;BME280;55930;47.412;8.790;2023-03-15T06:17:04;94626.31;;;1.01;100.00
68889;BME280;55930;47.412;8.790;2023-03-15T06:20:24;94639.66;;;2.23;100.00
68889;BME280;55930;47.412;8.790;2023-03-15T06:23:45;94633.19;;;3.68;100.00
68889;BME280;55930;47.412;8.790;2023-03-15T06:27:05;94638.94;;;4.66;95.51
68889;BME280;55930;47.412;8.790;2023-03-15T06:30:26;94636.34;;;4.79;93.42
68889;BME280;55930;47.412;8.790;2023-03-15T06:33:46;94643.13;;;4.63;92.80
68889;BME280;55930;47.412;8.790;2023-03-15T06:37:07;94643.16;;;4.89;90.92
68889;BME280;55930;47.412;8.790;2023-03-15T06:40:27;94636.97;;;3.02;100.00
68889;BME280;55930;47.412;8.790;2023-03-15T06:43:48;94655.44;;;3.47;100.00
68889;BME280;55930;47.412;8.790;2023-03-15T06:47:09;94667.06;;;5.07;91.52
68889;BME280;55930;47.412;8.790;2023-03-15T06:50:30;94656.72;;;3.88;95.19
68889;BME280;55930;47.412;8.790;2023-03-15T06:53:50;94656.69;;;2.51;100.00
68889;BME280;55930;47.412;8.790;2023-03-15T06:57:11;94661.72;;;2.22;100.00
68889;BME280;55930;47.412;8.790;2023-03-15T07:00:31;94664.59;;;2.87;100.00
68889;BME280;55930;47.412;8.790;2023-03-15T07:03:52;94666.28;;;2.18;100.00
68889;BME280;55930;47.412;8.790;2023-03-15T07:07:13;94671.28;;;1.89;100.00
68889;BME280;55930;47.412;8.790;2023-03-15T07:10:33;94664.19;;;2.10;100.00
68889;BME280;55930;47.412;8.790;2023-03-15T07:13:53;94678.47;;;2.05;100.00
68889;BME280;55930;47.412;8.790;2023-03-15T07:17:14;94678.16;;;1.80;100.00
68889;BME280;55930;47.412;8.790;2023-03-15T07:20:35;94683.94;;;1.91;100.00
68889;BME280;55930;47.412;8.790;2023-03-15T07:23:55;94685.91;;;2.30;100.00
68889;BME280;55930;47.412;8.790;2023-03-15T07:27:16;94687.19;;;2.61;100.00
68889;BME280;55930;47.412;8.790;2023-03-15T07:30:36;94672.94;;;3.99;99.49
68889;BME280;55930;47.412;8.790;2023-03-15T07:33:56;94687.56;;;4.99;94.19
68889;BME280;55930;47.412;8.790;2023-03-15T07:37:17;94696.38;;;6.07;88.86
68889;BME280;55930;47.412;8.790;2023-03-15T07:40:37;94693.03;;;6.84;83.22
68889;BME280;55930;47.412;8.790;2023-03-15T07:43:58;94698.81;;;7.23;79.93
68889;BME280;55930;47.412;8.790;2023-03-15T07:47:18;94701.38;;;7.85;77.17
68889;BME280;55930;47.412;8.790;2023-03-15T07:50:39;94702.34;;;8.55;71.93
68889;BME280;55930;47.412;8.790;2023-03-15T07:54:00;94695.28;;;8.88;67.22
68889;BME280;55930;47.412;8.790;2023-03-15T07:57:20;94700.88;;;8.63;65.15
68889;BME280;55930;47.412;8.790;2023-03-15T08:00:40;94691.16;;;9.47;64.86
68889;BME280;55930;47.412;8.790;2023-03-15T08:04:01;94694.56;;;8.78;64.40
68889;BME280;55930;47.412;8.790;2023-03-15T08:07:21;94701.41;;;9.12;62.74
68889;BME280;55930;47.412;8.790;2023-03-15T08:10:43;94700.28;;;10.36;57.51
68889;BME280;55930;47.412;8.790;2023-03-15T08:14:06;94691.25;;;9.20;59.01
68889;BME280;55930;47.412;8.790;2023-03-15T08:17:26;94704.41;;;11.20;53.82
68889;BME280;55930;47.412;8.790;2023-03-15T08:20:49;94704.22;;;12.63;51.20
68889;BME280;55930;47.412;8.790;2023-03-15T08:24:11;94695.59;;;13.51;48.22
68889;BME280;55930;47.412;8.790;2023-03-15T08:27:31;94709.28;;;12.41;47.51
68889;BME280;55930;47.412;8.790;2023-03-15T08:30:52;94696.41;;;14.00;45.72
68889;BME280;55930;47.412;8.790;2023-03-15T08:34:12;94701.63;;;14.20;46.60
68889;BME280;55930;47.412;8.790;2023-03-15T08:37:33;94695.16;;;8.64;56.77
68889;BME280;55930;47.412;8.790;2023-03-15T08:40:57;94698.56;;;9.67;57.54
68889;BME280;55930;47.412;8.790;2023-03-15T08:44:20;94702.72;;;10.63;53.79
68889;BME280;55930;47.412;8.790;2023-03-15T08:47:45;94705.38;;;12.36;51.76
68889;BME280;55930;47.412;8.790;2023-03-15T08:51:06;94706.03;;;8.75;59.40
68889;BME280;55930;47.412;8.790;2023-03-15T08:54:28;94704.44;;;11.84;48.79
68889;BME280;55930;47.412;8.790;2023-03-15T08:57:48;94698.00;;;13.18;45.45
68889;BME280;55930;47.412;8.790;2023-03-15T09:01:12;94709.53;;;10.41;49.67
68889;BME280;55930;47.412;8.790;2023-03-15T09:04:33;94711.50;;;8.54;54.64
68889;BME280;55930;47.412;8.790;2023-03-15T09:07:53;94708.66;;;14.82;42.30
68889;BME280;55930;47.412;8.790;2023-03-15T09:11:14;94705.84;;;7.57;57.72
68889;BME280;55930;47.412;8.790;2023-03-15T09:14:34;94719.41;;;16.05;38.48
68889;BME280;55930;47.412;8.790;2023-03-15T09:17:55;94709.94;;;9.91;51.36
68889;BME280;55930;47.412;8.790;2023-03-15T09:21:15;94715.00;;;17.64;36.01
68889;BME280;55930;47.412;8.790;2023-03-15T09:24:35;94706.88;;;13.35;42.15
68889;BME280;55930;47.412;8.790;2023-03-15T09:27:56;94727.69;;;16.01;36.55
68889;BME280;55930;47.412;8.790;2023-03-15T09:31:16;94719.97;;;13.38;40.37
68889;BME280;55930;47.412;8.790;2023-03-15T09:34:37;94727.75;;;11.89;44.03
68889;BME280;55930;47.412;8.790;2023-03-15T09:37:59;94732.03;;;11.86;43.64
68889;BME280;55930;47.412;8.790;2023-03-15T09:55:48;94725.13;;;20.07;29.52
68889;BME280;55930;47.412;8.790;2023-03-15T09:59:11;94727.81;;;19.11;29.85
68889;BME280;55930;47.412;8.790;2023-03-15T10:02:31;94728.56;;;21.75;24.72
68889;BME280;55930;47.412;8.790;2023-03-15T10:05:58;94735.34;;;20.67;29.34
68889;BME280;55930;47.412;8.790;2023-03-15T10:09:22;94732.22;;;20.37;27.82
68889;BME280;55930;47.412;8.790;2023-03-15T10:12:47;94729.44;;;18.83;30.63
68889;BME280;55930;47.412;8.790;2023-03-15T10:19:50;94721.81;;;11.65;41.10
68889;BME280;55930;47.412;8.790;2023-03-15T10:23:18;94729.22;;;9.59;44.33
68889;BME280;55930;47.412;8.790;2023-03-15T10:26:40;94722.03;;;10.16;41.65
68889;BME280;55930;47.412;8.790;2023-03-15T10:30:15;94726.91;;;10.18;39.53
68889;BME280;55930;47.412;8.790;2023-03-15T10:33:37;94736.75;;;16.73;27.21
68889;BME280;55930;47.412;8.790;2023-03-15T10:37:01;94728.81;;;21.64;23.47
68889;BME280;55930;47.412;8.790;2023-03-15T10:44:12;94716.75;;;19.34;25.00
68889;BME280;55930;47.412;8.790;2023-03-15T10:47:41;94719.78;;;19.62;25.86
68889;BME280;55930;47.412;8.790;2023-03-15T10:51:13;94703.25;;;17.67;28.61
68889;BME280;55930;47.412;8.790;2023-03-15T10:54:35;94712.34;;;15.18;32.21
68889;BME280;55930;47.412;8.790;2023-03-15T10:57:58;94713.25;;;14.76;33.26
68889;BME280;55930;47.412;8.790;2023-03-15T11:01:28;94708.81;;;12.02;34.60
68889;BME280;55930;47.412;8.790;2023-03-15T11:05:03;94716.88;;;12.94;33.43
68889;BME280;55930;47.412;8.790;2023-03-15T11:08:40;94703.03;;;14.69;31.61
68889;BME280;55930;47.412;8.790;2023-03-15T11:12:06;94697.25;;;18.10;25.49
68889;BME280;55930;47.412;8.790;2023-03-15T11:15:27;94694.16;;;18.49;23.20
68889;BME280;55930;47.412;8.790;2023-03-15T11:22:12;94695.50;;;18.80;24.54
68889;BME280;55930;47.412;8.790;2023-03-15T11:25:33;94693.59;;;17.83;24.67
68889;BME280;55930;47.412;8.790;2023-03-15T11:28:56;94693.50;;;17.70;25.50
68889;BME280;55930;47.412;8.790;2023-03-15T11:32:20;94683.06;;;14.42;26.91
68889;BME280;55930;47.412;8.790;2023-03-15T11:35:44;94701.09;;;19.32;24.45
68889;BME280;55930;47.412;8.790;2023-03-15T11:39:13;94691.38;;;20.46;22.77
68889;BME280;55930;47.412;8.790;2023-03-15T11:46:29;94684.09;;;22.26;20.38
68889;BME280;55930;47.412;8.790;2023-03-15T11:49:55;94674.75;;;22.70;19.84
68889;BME280;55930;47.412;8.790;2023-03-15T11:53:17;94675.13;;;21.82;21.61
68889;BME280;55930;47.412;8.790;2023-03-15T12:08:00;94654.81;;;22.88;20.65
68889;BME280;55930;47.412;8.790;2023-03-15T12:11:37;94640.50;;;24.55;18.84
68889;BME280;55930;47.412;8.790;2023-03-15T12:18:43;94642.91;;;22.40;19.26
68889;BME280;55930;47.412;8.790;2023-03-15T12:22:14;94641.66;;;14.97;27.22
68889;BME280;55930;47.412;8.790;2023-03-15T12:25:37;94652.00;;;12.91;30.31
68889;BME280;55930;47.412;8.790;2023-03-15T12:29:11;94650.03;;;19.45;24.71
68889;BME280;55930;47.412;8.790;2023-03-15T12:32:42;94641.56;;;23.67;18.90
68889;BME280;55930;47.412;8.790;2023-03-15T12:36:18;94640.41;;;22.94;19.50
68889;BME280;55930;47.412;8.790;2023-03-15T12:39:51;94641.72;;;21.43;18.38
68889;BME280;55930;47.412;8.790;2023-03-15T12:43:40;94627.19;;;20.57;19.41
68889;BME280;55930;47.412;8.790;2023-03-15T12:47:12;94636.91;;;13.09;30.06
68889;BME280;55930;47.412;8.790;2023-03-15T12:51:00;94631.38;;;17.84;25.67
68889;BME280;55930;47.412;8.790;2023-03-15T12:54:23;94635.06;;;13.20;30.88
68889;BME280;55930;47.412;8.790;2023-03-15T12:57:49;94647.03;;;12.33;31.70
68889;BME280;55930;47.412;8.790;2023-03-15T13:01:11;94642.78;;;12.00;31.73
68889;BME280;55930;47.412;8.790;2023-03-15T13:04:35;94635.84;;;18.44;24.20
68889;BME280;55930;47.412;8.790;2023-03-15T13:08:20;94640.41;;;20.08;21.38
68889;BME280;55930;47.412;8.790;2023-03-15T13:11:55;94628.53;;;24.66;17.33
68889;BME280;55930;47.412;8.790;2023-03-15T13:15:27;94643.59;;;22.05;18.83
68889;BME280;55930;47.412;8.790;2023-03-15T13:22:41;94640.59;;;20.84;19.75
68889;BME280;55930;47.412;8.790;2023-03-15T13:29:33;94642.47;;;20.15;19.20
68889;BME280;55930;47.412;8.790;2023-03-15T13:33:31;94636.75;;;21.75;19.57
68889;BME280;55930;47.412;8.790;2023-03-15T13:36:56;94635.50;;;20.33;20.55
68889;BME280;55930;47.412;8.790;2023-03-15T13:40:17;94622.53;;;13.69;26.55
68889;BME280;55930;47.412;8.790;2023-03-15T13:43:38;94629.63;;;11.06;29.93
68889;BME280;55930;47.412;8.790;2023-03-15T13:47:01;94641.38;;;12.45;30.80
68889;BME280;55930;47.412;8.790;2023-03-15T13:50:21;94642.59;;;12.24;30.34
68889;BME280;55930;47.412;8.790;2023-03-15T13:53:46;94625.13;;;11.62;30.27
68889;BME280;55930;47.412;8.790;2023-03-15T13:57:11;94624.38;;;10.39;33.47
68889;BME280;55930;47.412;8.790;2023-03-15T14:00:34;94629.06;;;10.44;34.98
68889;BME280;55930;47.412;8.790;2023-03-15T14:03:58;94625.97;;;19.79;24.15
68889;BME280;55930;47.412;8.790;2023-03-15T14:07:27;94623.88;;;20.65;23.27
68889;BME280;55930;47.412;8.790;2023-03-15T14:11:30;94621.22;;;17.17;25.50
68889;BME280;55930;47.412;8.790;2023-03-15T14:14:52;94617.28;;;20.00;22.13
68889;BME280;55930;47.412;8.790;2023-03-15T14:18:20;94622.03;;;18.34;23.57
68889;BME280;55930;47.412;8.790;2023-03-15T14:21:43;94631.69;;;12.42;31.96
68889;BME280;55930;47.412;8.790;2023-03-15T14:25:18;94631.00;;;10.58;33.63
68889;BME280;55930;47.412;8.790;2023-03-15T14:28:47;94635.84;;;11.18;33.88
68889;BME280;55930;47.412;8.790;2023-03-15T14:32:26;94632.44;;;12.02;34.62
68889;BME280;55930;47.412;8.790;2023-03-15T14:35:52;94631.56;;;10.77;36.08
68889;BME280;55930;47.412;8.790;2023-03-15T14:39:39;94628.66;;;12.29;34.23
68889;BME280;55930;47.412;8.790;2023-03-15T14:43:00;94633.56;;;10.52;37.20
68889;BME280;55930;47.412;8.790;2023-03-15T14:46:21;94635.13;;;10.59;36.87
68889;BME280;55930;47.412;8.790;2023-03-15T14:49:44;94639.09;;;10.40;37.92
68889;BME280;55930;47.412;8.790;2023-03-15T14:53:05;94643.94;;;10.26;39.81
68889;BME280;55930;47.412;8.790;2023-03-15T14:56:29;94639.66;;;12.42;36.75
68889;BME280;55930;47.412;8.790;2023-03-15T14:59:52;94632.13;;;12.61;35.12
68889;BME280;55930;47.412;8.790;2023-03-15T15:03:22;94642.44;;;11.72;35.17
68889;BME280;55930;47.412;8.790;2023-03-15T15:06:45;94635.31;;;10.99;40.03
68889;BME280;55930;47.412;8.790;2023-03-15T15:10:14;94628.25;;;10.38;38.28
68889;BME280;55930;47.412;8.790;2023-03-15T15:13:36;94628.88;;;10.62;39.05
68889;BME280;55930;47.412;8.790;2023-03-15T15:16:57;94627.94;;;9.73;40.04
68889;BME280;55930;47.412;8.790;2023-03-15T15:20:18;94642.28;;;9.57;41.93
68889;BME280;55930;47.412;8.790;2023-03-15T15:23:41;94631.22;;;9.59;43.34
68889;BME280;55930;47.412;8.790;2023-03-15T15:27:04;94638.50;;;9.16;43.17
68889;BME280;55930;47.412;8.790;2023-03-15T15:30:25;94627.22;;;8.98;42.79
68889;BME280;55930;47.412;8.790;2023-03-15T15:33:49;94633.47;;;8.58;43.52
68889;BME280;55930;47.412;8.790;2023-03-15T15:37:10;94634.53;;;8.33;44.29
68889;BME280;55930;47.412;8.790;2023-03-15T15:40:33;94631.69;;;8.73;44.35
68889;BME280;55930;47.412;8.790;2023-03-15T15:43:53;94647.00;;;8.42;45.42
68889;BME280;55930;47.412;8.790;2023-03-15T15:47:14;94647.00;;;8.51;46.58
68889;BME280;55930;47.412;8.790;2023-03-15T15:50:35;94649.16;;;8.07;48.75
68889;BME280;55930;47.412;8.790;2023-03-15T15:54:00;94655.50;;;8.19;45.30
68889;BME280;55930;47.412;8.790;2023-03-15T15:57:21;94654.72;;;7.91;46.72
68889;BME280;55930;47.412;8.790;2023-03-15T16:00:45;94652.50;;;7.71;48.18
68889;BME280;55930;47.412;8.790;2023-03-15T16:04:06;94665.66;;;7.62;51.02
68889;BME280;55930;47.412;8.790;2023-03-15T16:07:27;94672.84;;;7.61;46.55
68889;BME280;55930;47.412;8.790;2023-03-15T16:10:48;94668.16;;;7.56;46.95
68889;BME280;55930;47.412;8.790;2023-03-15T16:14:11;94672.47;;;7.81;46.99
68889;BME280;55930;47.412;8.790;2023-03-15T16:17:35;94679.69;;;7.41;50.03
68889;BME280;55930;47.412;8.790;2023-03-15T16:20:56;94681.13;;;7.33;48.47
68889;BME280;55930;47.412;8.790;2023-03-15T16:24:24;94686.31;;;7.14;49.35
68889;BME280;55930;47.412;8.790;2023-03-15T16:27:45;94681.25;;;6.98;52.08
68889;BME280;55930;47.412;8.790;2023-03-15T16:31:05;94681.66;;;6.97;57.06
68889;BME280;55930;47.412;8.790;2023-03-15T16:34:26;94692.97;;;7.28;54.83
68889;BME280;55930;47.412;8.790;2023-03-15T16:37:55;94692.94;;;6.97;54.49
68889;BME280;55930;47.412;8.790;2023-03-15T16:41:16;94690.72;;;7.17;53.88
68889;BME280;55930;47.412;8.790;2023-03-15T16:44:37;94698.63;;;7.17;49.45
68889;BME280;55930;47.412;8.790;2023-03-15T16:47:59;94697.50;;;6.75;48.55
68889;BME280;55930;47.412;8.790;2023-03-15T16:51:20;94702.88;;;6.71;50.64
68889;BME280;55930;47.412;8.790;2023-03-15T16:54:41;94697.44;;;6.44;51.94
68889;BME280;55930;47.412;8.790;2023-03-15T16:58:11;94706.16;;;6.53;53.66
68889;BME280;55930;47.412;8.790;2023-03-15T17:01:33;94711.44;;;6.41;59.56
68889;BME280;55930;47.412;8.790;2023-03-15T17:04:53;94714.94;;;6.38;58.98
68889;BME280;55930;47.412;8.790;2023-03-15T17:08:17;94717.25;;;6.01;57.13
68889;BME280;55930;47.412;8.790;2023-03-15T17:11:39;94719.28;;;5.97;59.68
68889;BME280;55930;47.412;8.790;2023-03-15T17:15:00;94725.03;;;5.67;64.74
68889;BME280;55930;47.412;8.790;2023-03-15T17:18:21;94730.72;;;5.53;63.58
68889;BME280;55930;47.412;8.790;2023-03-15T17:21:43;94737.22;;;5.23;62.74
68889;BME280;55930;47.412;8.790;2023-03-15T17:25:04;94742.97;;;4.92;65.32
68889;BME280;55930;47.412;8.790;2023-03-15T17:28:24;94753.16;;;4.90;64.63
68889;BME280;55930;47.412;8.790;2023-03-15T17:31:46;94762.41;;;4.66;73.14
68889;BME280;55930;47.412;8.790;2023-03-15T17:35:07;94759.94;;;4.46;74.73
68889;BME280;55930;47.412;8.790;2023-03-15T17:38:29;94767.66;;;4.37;75.81
68889;BME280;55930;47.412;8.790;2023-03-15T17:41:51;94774.63;;;4.11;80.50
68889;BME280;55930;47.412;8.790;2023-03-15T17:45:15;94771.03;;;3.89;79.63
68889;BME280;55930;47.412;8.790;2023-03-15T17:48:37;94772.50;;;3.74;78.49
68889;BME280;55930;47.412;8.790;2023-03-15T17:51:57;94779.69;;;3.70;78.46
68889;BME280;55930;47.412;8.790;2023-03-15T17:55:20;94782.31;;;3.70;79.82
68889;BME280;55930;47.412;8.790;2023-03-15T17:58:41;94786.00;;;3.36;81.36
68889;BME280;55930;47.412;8.790;2023-03-15T18:02:12;94790.66;;;3.29;81.64
68889;BME280;55930;47.412;8.790;2023-03-15T18:05:33;94796.44;;;3.20;84.80
68889;BME280;55930;47.412;8.790;2023-03-15T18:08:54;94796.31;;;2.88;86.35
68889;BME280;55930;47.412;8.790;2023-03-15T18:12:14;94792.00;;;2.78;88.40
68889;BME280;55930;47.412;8.790;2023-03-15T18:15:35;94802.09;;;2.79;88.06
68889;BME280;55930;47.412;8.790;2023-03-15T18:18:56;94795.44;;;2.75;86.73
68889;BME280;55930;47.412;8.790;2023-03-15T18:22:17;94792.59;;;2.65;87.88
68889;BME280;55930;47.412;8.790;2023-03-15T18:25:37;94793.97;;;2.50;89.15
68889;BME280;55930;47.412;8.790;2023-03-15T18:28:58;94795.50;;;2.48;89.76
68889;BME280;55930;47.412;8.790;2023-03-15T18:32:18;94796.16;;;2.55;88.09
68889;BME280;55930;47.412;8.790;2023-03-15T18:35:39;94801.59;;;2.41;89.92
68889;BME280;55930;47.412;8.790;2023-03-15T18:38:59;94792.34;;;2.37;87.94
68889;BME280;55930;47.412;8.790;2023-03-15T18:42:20;94800.63;;;2.31;87.46
68889;BME280;55930;47.412;8.790;2023-03-15T18:45:40;94791.53;;;2.16;87.68
68889;BME280;55930;47.412;8.790;2023-03-15T18:49:01;94792.28;;;2.17;87.97
68889;BME280;55930;47.412;8.790;2023-03-15T18:52:21;94793.09;;;2.14;89.17
68889;BME280;55930;47.412;8.790;2023-03-15T18:55:42;94789.72;;;2.13;89.08
68889;BME280;55930;47.412;8.790;2023-03-15T18:59:03;94789.53;;;2.01;89.68